createdAt,value
2023-03-05T00:02:34.703Z,0.09
2023-03-05T00:05:38.385Z,0.15
2023-03-05T00:08:42.989Z,0.06
2023-03-05T00:11:47.491Z,0.01
2023-03-05T00:14:52.571Z,0.06
2023-03-05T00:17:56.125Z,0.15
2023-03-05T00:20:59.946Z,0.21
2023-03-05T00:24:05.625Z,0.14
2023-03-05T00:27:09.169Z,0.20
2023-03-05T00:30:15.723Z,0.19
2023-03-05T00:33:20.858Z,0.40
2023-03-05T00:36:24.744Z,0.43
2023-03-05T00:39:28.227Z,0.08
2023-03-05T00:42:32.264Z,0.06
2023-03-05T00:45:37.234Z,-0.08
2023-03-05T00:48:40.926Z,-0.09
2023-03-05T00:51:44.516Z,-0.39
2023-03-05T00:54:48.200Z,-0.46
2023-03-05T00:57:51.837Z,-0.50
2023-03-05T01:00:59.126Z,-0.43
2023-03-05T01:04:02.700Z,-0.38
2023-03-05T01:07:06.787Z,-0.46
2023-03-05T01:10:13.143Z,-0.68
2023-03-05T01:13:16.997Z,-0.55
2023-03-05T01:16:22.085Z,-0.68
2023-03-05T01:19:25.843Z,-0.65
2023-03-05T01:22:30.134Z,-0.65
2023-03-05T01:25:33.593Z,-0.60
2023-03-05T01:28:38.556Z,-0.65
2023-03-05T01:31:43.721Z,-0.70
2023-03-05T01:34:47.265Z,-0.62
2023-03-05T01:37:50.817Z,-0.59
2023-03-05T01:40:54.952Z,-0.58
2023-03-05T01:43:58.854Z,-0.66
2023-03-05T01:47:04.285Z,-0.82
2023-03-05T01:50:11.572Z,-0.74
2023-03-05T01:53:15.743Z,-0.71
2023-03-05T01:56:19.648Z,-0.73
2023-03-05T01:59:26.212Z,-0.86
2023-03-05T02:02:31.795Z,-0.79
2023-03-05T02:05:38.189Z,-0.76
2023-03-05T02:08:42.356Z,-0.66
2023-03-05T02:11:46.183Z,-0.77
2023-03-05T02:14:59.244Z,-0.79
2023-03-05T02:18:04.618Z,-0.81
2023-03-05T02:21:10.273Z,-0.72
2023-03-05T02:24:15.181Z,-0.77
2023-03-05T02:27:20.995Z,-0.87
2023-03-05T02:30:32.460Z,-0.88
2023-03-05T02:33:36.293Z,-1.02
2023-03-05T02:36:41.678Z,-1.00
2023-03-05T02:39:46.176Z,-1.00
2023-03-05T02:42:50.052Z,-0.98
2023-03-05T02:45:54.260Z,-0.96
2023-03-05T02:48:57.932Z,-1.03
2023-03-05T02:52:16.807Z,-1.07
2023-03-05T02:55:20.891Z,-0.98
2023-03-05T02:58:24.967Z,-0.92
2023-03-05T03:01:29.871Z,-0.91
2023-03-05T03:04:34.496Z,-0.79
2023-03-05T03:07:39.785Z,-0.76
2023-03-05T03:10:43.560Z,-0.86
2023-03-05T03:13:47.185Z,-0.61
2023-03-05T03:16:53.170Z,-0.69
2023-03-05T03:19:56.890Z,-0.86
2023-03-05T03:23:02.064Z,-0.65
2023-03-05T03:26:05.749Z,-0.80
2023-03-05T03:29:09.174Z,-0.84
2023-03-05T03:32:12.707Z,-0.89
2023-03-05T03:35:16.531Z,-0.81
2023-03-05T03:38:21.459Z,-0.80
2023-03-05T03:41:25.099Z,-0.78
2023-03-05T03:44:28.666Z,-0.80
2023-03-05T03:47:32.394Z,-0.89
2023-03-05T03:50:35.891Z,-0.91
2023-03-05T03:53:41.071Z,-0.95
2023-03-05T03:56:44.724Z,-0.98
2023-03-05T03:59:50.539Z,-0.96
2023-03-05T04:02:54.055Z,-0.93
2023-03-05T04:05:57.969Z,-0.98
2023-03-05T04:09:03.966Z,-0.91
2023-03-05T04:12:08.631Z,-1.07
2023-03-05T04:15:12.467Z,-1.04
2023-03-05T04:18:15.951Z,-1.02
2023-03-05T04:21:19.339Z,-0.97
2023-03-05T04:24:24.320Z,-1.06
2023-03-05T04:27:27.780Z,-1.04
2023-03-05T04:30:31.464Z,-0.98
2023-03-05T04:33:35.828Z,-0.96
2023-03-05T04:36:39.634Z,-1.04
2023-03-05T04:39:44.926Z,-1.12
2023-03-05T04:42:48.822Z,-1.22
2023-03-05T04:45:52.624Z,-1.28
2023-03-05T04:48:58.500Z,-1.40
2023-03-05T04:52:01.944Z,-1.42
2023-03-05T04:55:07.938Z,-1.36
2023-03-05T04:58:11.439Z,-1.35
2023-03-05T05:01:15.985Z,-1.26
2023-03-05T05:04:19.408Z,-1.43
2023-03-05T05:07:23.201Z,-1.49
2023-03-05T05:10:28.456Z,-1.41
2023-03-05T05:13:33.054Z,-1.58
2023-03-05T05:16:37.257Z,-1.43
2023-03-05T05:19:40.914Z,-1.57
2023-03-05T05:22:44.805Z,-1.56
2023-03-05T05:25:57.499Z,-1.58
2023-03-05T05:29:01.162Z,-1.50
2023-03-05T05:32:04.766Z,-1.49
2023-03-05T05:35:09.171Z,-1.67
2023-03-05T05:38:12.740Z,-1.51
2023-03-05T05:41:19.814Z,-1.54
2023-03-05T05:44:23.548Z,-1.65
2023-03-05T05:47:27.902Z,-1.66
2023-03-05T05:50:31.414Z,-1.63
2023-03-05T05:53:35.405Z,-1.55
2023-03-05T05:56:40.457Z,-1.43
2023-03-05T05:59:44.109Z,-1.53
2023-03-05T06:02:47.827Z,-1.59
2023-03-05T06:05:52.205Z,-1.47
2023-03-05T06:08:56.506Z,-1.53
2023-03-05T06:12:01.621Z,-1.47
2023-03-05T06:15:05.921Z,-1.44
2023-03-05T06:18:09.767Z,-1.43
2023-03-05T06:21:15.657Z,-1.49
2023-03-05T06:24:19.884Z,-1.42
2023-03-05T06:27:25.016Z,-1.42
2023-03-05T06:30:28.601Z,-1.35
2023-03-05T06:33:32.549Z,-1.38
2023-03-05T06:36:36.239Z,-1.32
2023-03-05T06:39:39.829Z,-1.27
2023-03-05T06:42:45.764Z,-1.33
2023-03-05T06:45:49.537Z,-1.22
2023-03-05T06:48:55.935Z,-1.23
2023-03-05T06:51:59.440Z,-1.22
2023-03-05T06:55:03.025Z,-1.26
2023-03-05T06:58:09.241Z,-1.30
2023-03-05T07:01:13.217Z,-1.21
2023-03-05T07:04:17.122Z,-1.23
2023-03-05T07:07:20.520Z,-1.20
2023-03-05T07:10:23.928Z,-1.13
2023-03-05T07:13:29.031Z,-0.93
2023-03-05T07:16:34.567Z,-1.05
2023-03-05T07:19:39.778Z,-0.95
2023-03-05T07:22:43.439Z,-1.00
2023-03-05T07:25:46.863Z,-1.04
2023-03-05T07:28:51.791Z,-0.93
2023-03-05T07:31:55.736Z,-0.87
2023-03-05T07:34:59.520Z,-1.02
2023-03-05T07:38:03.444Z,-0.99
2023-03-05T07:41:08.953Z,-0.87
2023-03-05T07:44:14.179Z,-0.78
2023-03-05T07:47:18.102Z,-0.84
2023-03-05T07:50:21.762Z,-0.79
2023-03-05T07:53:25.442Z,-0.92
2023-03-05T07:56:32.188Z,-1.04
2023-03-05T07:59:37.215Z,-1.08
2023-03-05T08:02:40.768Z,-1.08
2023-03-05T08:05:44.449Z,-1.13
2023-03-05T08:08:48.030Z,-1.17
2023-03-05T08:11:52.000Z,-1.08
2023-03-05T08:14:57.022Z,-1.03
2023-03-05T08:18:01.134Z,-1.00
2023-03-05T08:21:05.136Z,-0.95
2023-03-05T08:24:10.039Z,-1.03
2023-03-05T08:27:13.721Z,-0.97
2023-03-05T08:30:22.281Z,-0.87
2023-03-05T08:33:26.019Z,-0.82
2023-03-05T08:36:30.160Z,-0.87
2023-03-05T08:39:34.410Z,-0.74
2023-03-05T08:42:37.994Z,-0.72
2023-03-05T08:45:42.863Z,-0.65
2023-03-05T08:48:46.655Z,-0.60
2023-03-05T08:51:50.201Z,-0.46
2023-03-05T08:54:54.110Z,-0.43
2023-03-05T08:57:57.537Z,-0.36
2023-03-05T09:01:02.763Z,-0.28
2023-03-05T09:04:06.340Z,-0.15
2023-03-05T09:07:09.750Z,-0.11
2023-03-05T09:10:15.085Z,-0.11
2023-03-05T09:13:18.464Z,-0.08
2023-03-05T09:16:23.316Z,0.06
2023-03-05T09:19:27.617Z,0.13
2023-03-05T09:22:31.677Z,0.15
2023-03-05T09:25:35.367Z,0.14
2023-03-05T09:28:39.094Z,0.29
2023-03-05T09:31:44.649Z,0.27
2023-03-05T09:34:48.451Z,0.30
2023-03-05T09:37:52.780Z,0.25
2023-03-05T09:41:05.658Z,0.17
2023-03-05T09:44:24.733Z,0.17
2023-03-05T09:47:46.686Z,0.15
2023-03-05T09:50:54.505Z,0.06
2023-03-05T09:54:04.785Z,-0.05
2023-03-05T09:57:17.513Z,-0.13
2023-03-05T10:00:31.673Z,-0.13
2023-03-05T10:03:50.171Z,-0.12
2023-03-05T10:06:59.799Z,-0.07
2023-03-05T10:10:11.011Z,0.16
2023-03-05T10:13:24.069Z,0.35
2023-03-05T10:16:51.498Z,0.44
2023-03-05T10:20:15.684Z,0.45
2023-03-05T10:23:31.152Z,0.50
2023-03-05T10:26:50.594Z,0.38
2023-03-05T10:30:05.542Z,0.45
2023-03-05T10:33:17.013Z,0.54
2023-03-05T10:36:34.174Z,0.65
2023-03-05T10:40:05.790Z,0.56
2023-03-05T10:43:20.472Z,0.59
2023-03-05T10:46:32.723Z,0.59
2023-03-05T10:49:43.161Z,0.77
2023-03-05T10:52:53.508Z,0.80
2023-03-05T10:55:57.891Z,0.74
2023-03-05T10:59:01.274Z,0.67
2023-03-05T11:02:08.932Z,0.66
2023-03-05T11:05:40.434Z,0.55
2023-03-05T11:08:45.236Z,0.54
2023-03-05T11:12:05.960Z,0.55
2023-03-05T11:15:27.837Z,0.61
2023-03-05T11:18:34.801Z,0.21
2023-03-05T11:21:38.458Z,-0.35
2023-03-05T11:24:46.810Z,-0.47
2023-03-05T11:27:54.623Z,-0.42
2023-03-05T11:31:01.914Z,-0.13
2023-03-05T11:34:09.030Z,0.06
2023-03-05T11:37:26.844Z,0.08
2023-03-05T11:40:36.935Z,0.13
2023-03-05T11:43:43.117Z,0.08
2023-03-05T11:46:50.086Z,0.09
2023-03-05T11:50:02.582Z,0.17
2023-03-05T11:53:09.771Z,0.27
2023-03-05T11:56:22.844Z,0.31
2023-03-05T11:59:32.587Z,0.42
2023-03-05T12:02:36.378Z,0.48
2023-03-05T12:05:43.335Z,0.45
2023-03-05T12:08:50.998Z,0.50
2023-03-05T12:12:03.522Z,0.61
2023-03-05T12:15:26.947Z,0.63
2023-03-05T12:18:47.422Z,0.67
2023-03-05T12:21:52.699Z,0.66
2023-03-05T12:25:26.379Z,0.58
2023-03-05T12:28:59.480Z,0.60
2023-03-05T12:32:03.634Z,0.61
2023-03-05T12:35:23.785Z,0.63
2023-03-05T12:38:35.070Z,0.73
2023-03-05T12:41:39.701Z,0.82
2023-03-05T12:44:45.152Z,0.88
2023-03-05T12:48:12.278Z,0.97
2023-03-05T12:51:34.952Z,0.82
2023-03-05T12:54:39.915Z,0.82
2023-03-05T12:57:45.396Z,0.71
2023-03-05T13:00:53.736Z,0.61
2023-03-05T13:04:01.581Z,0.63
2023-03-05T13:07:08.461Z,0.38
2023-03-05T13:10:23.766Z,0.40
2023-03-05T13:13:30.028Z,0.45
2023-03-05T13:16:40.171Z,0.33
2023-03-05T13:19:43.798Z,0.40
2023-03-05T13:22:48.978Z,0.37
2023-03-05T13:26:02.463Z,0.43
2023-03-05T13:29:14.015Z,0.41
2023-03-05T13:32:26.768Z,0.33
2023-03-05T13:35:30.771Z,0.05
2023-03-05T13:38:40.631Z,-0.46
2023-03-05T13:41:44.238Z,-0.42
2023-03-05T13:44:55.885Z,-0.38
2023-03-05T13:48:01.316Z,-0.37
2023-03-05T13:51:07.100Z,-0.46
2023-03-05T13:54:16.801Z,-0.50
2023-03-05T13:57:37.034Z,-0.54
2023-03-05T14:00:41.388Z,-0.56
2023-03-05T14:03:47.060Z,-0.66
2023-03-05T14:06:54.858Z,-0.66
2023-03-05T14:10:03.231Z,-0.67
2023-03-05T14:13:14.650Z,-0.65
2023-03-05T14:16:26.988Z,-0.58
2023-03-05T14:19:39.477Z,-0.53
2023-03-05T14:22:45.317Z,-0.49
2023-03-05T14:25:50.683Z,-0.51
2023-03-05T14:28:56.486Z,-0.54
2023-03-05T14:32:04.224Z,-0.42
2023-03-05T14:35:08.681Z,-0.44
2023-03-05T14:38:21.393Z,-0.36
2023-03-05T14:41:40.296Z,-0.41
2023-03-05T14:44:44.405Z,-0.44
2023-03-05T14:47:48.502Z,-0.50
2023-03-05T14:50:57.178Z,-0.46
2023-03-05T14:54:00.904Z,-0.46
2023-03-05T14:57:07.508Z,-0.50
2023-03-05T15:00:18.201Z,-0.50
2023-03-05T15:03:23.760Z,-0.54
2023-03-05T15:06:33.197Z,-0.51
2023-03-05T15:09:38.368Z,-0.42
2023-03-05T15:12:44.552Z,-0.52
2023-03-05T15:15:49.218Z,-0.45
2023-03-05T15:18:52.700Z,-0.52
2023-03-05T15:21:56.432Z,-0.54
2023-03-05T15:24:59.932Z,-0.59
2023-03-05T15:28:04.992Z,-0.64
2023-03-05T15:31:09.726Z,-0.66
2023-03-05T15:34:13.389Z,-0.71
2023-03-05T15:37:17.080Z,-0.76
2023-03-05T15:40:22.408Z,-0.69
2023-03-05T15:43:27.462Z,-0.64
2023-03-05T15:46:31.214Z,-0.61
2023-03-05T15:49:34.909Z,-0.60
2023-03-05T15:52:38.410Z,-0.64
2023-03-05T15:55:43.620Z,-0.58
2023-03-05T15:58:50.478Z,-0.50
2023-03-05T16:01:54.007Z,-0.49
2023-03-05T16:04:57.604Z,-0.59
2023-03-05T16:08:01.862Z,-0.63
2023-03-05T16:11:06.596Z,-0.61
2023-03-05T16:14:12.008Z,-0.60
2023-03-05T16:17:16.702Z,-0.72
2023-03-05T16:20:21.831Z,-0.55
2023-03-05T16:23:25.445Z,-0.56
2023-03-05T16:26:29.258Z,-0.62
2023-03-05T16:29:35.040Z,-0.61
2023-03-05T16:32:39.101Z,-0.55
2023-03-05T16:35:42.578Z,-0.76
2023-03-05T16:38:46.133Z,-0.56
2023-03-05T16:41:50.975Z,-0.58
2023-03-05T16:44:56.957Z,-0.53
2023-03-05T16:48:00.753Z,-0.53
2023-03-05T16:51:04.856Z,-0.53
2023-03-05T16:54:10.227Z,-0.43
2023-03-05T16:57:14.009Z,-0.39
2023-03-05T17:00:21.908Z,-0.49
2023-03-05T17:03:27.997Z,-0.40
2023-03-05T17:06:33.875Z,-0.68
2023-03-05T17:09:38.084Z,-0.85
2023-03-05T17:12:43.739Z,-0.65
2023-03-05T17:15:48.693Z,-0.82
2023-03-05T17:18:53.683Z,-0.70
2023-03-05T17:21:57.307Z,-0.68
2023-03-05T17:25:00.958Z,-0.70
2023-03-05T17:28:05.185Z,-0.88
2023-03-05T17:31:10.818Z,-0.80
2023-03-05T17:34:14.360Z,-0.91
2023-03-05T17:37:19.480Z,-0.85
2023-03-05T17:40:24.136Z,-0.84
2023-03-05T17:43:28.372Z,-0.76
2023-03-05T17:46:33.515Z,-0.80
2023-03-05T17:49:36.946Z,-0.71
2023-03-05T17:52:41.473Z,-0.76
2023-03-05T17:55:45.558Z,-0.78
2023-03-05T17:58:49.661Z,-0.86
2023-03-05T18:01:54.822Z,-0.92
2023-03-05T18:04:58.366Z,-0.84
2023-03-05T18:08:03.585Z,-0.87
2023-03-05T18:11:07.166Z,-0.92
2023-03-05T18:14:10.598Z,-1.02
2023-03-05T18:17:16.255Z,-0.94
2023-03-05T18:20:28.569Z,-0.98
2023-03-05T18:23:32.060Z,-1.05
2023-03-05T18:26:35.486Z,-0.99
2023-03-05T18:29:38.919Z,-1.14
2023-03-05T18:32:45.064Z,-1.15
2023-03-05T18:35:52.538Z,-1.17
2023-03-05T18:38:56.133Z,-1.18
2023-03-05T18:41:59.952Z,-1.20
2023-03-05T18:45:04.095Z,-1.21
2023-03-05T18:48:09.231Z,-1.24
2023-03-05T18:51:19.803Z,-1.28
2023-03-05T18:54:23.568Z,-1.12
2023-03-05T18:57:27.600Z,-0.98
2023-03-05T19:00:32.733Z,-1.16
2023-03-05T19:03:38.019Z,-1.12
2023-03-05T19:06:41.609Z,-1.23
2023-03-05T19:09:52.700Z,-1.18
2023-03-05T19:13:05.973Z,-1.16
2023-03-05T19:16:11.718Z,-1.32
2023-03-05T19:19:20.554Z,-1.47
2023-03-05T19:22:26.671Z,-1.31
2023-03-05T19:25:30.451Z,-1.27
2023-03-05T19:28:34.100Z,-1.40
2023-03-05T19:31:38.257Z,-1.47
2023-03-05T19:34:45.196Z,-1.49
2023-03-05T19:37:49.232Z,-1.42
2023-03-05T19:40:52.696Z,-1.45
2023-03-05T19:43:56.457Z,-1.39
2023-03-05T19:47:00.192Z,-1.50
2023-03-05T19:50:05.972Z,-1.44
2023-03-05T19:53:09.651Z,-1.40
2023-03-05T19:56:15.814Z,-1.44
2023-03-05T19:59:21.374Z,-1.43
2023-03-05T20:02:24.961Z,-1.41
2023-03-05T20:05:31.267Z,-1.42
2023-03-05T20:08:35.177Z,-1.47
2023-03-05T20:11:39.645Z,-1.42
2023-03-05T20:14:43.053Z,-1.44
2023-03-05T20:17:48.358Z,-1.41
2023-03-05T20:21:01.935Z,-1.39
2023-03-05T20:24:09.817Z,-1.46
2023-03-05T20:27:13.506Z,-1.46
2023-03-05T20:30:18.054Z,-1.42
2023-03-05T20:33:21.573Z,-1.41
2023-03-05T20:36:26.834Z,-1.42
2023-03-05T20:39:31.050Z,-1.39
2023-03-05T20:42:34.718Z,-1.42
2023-03-05T20:45:38.663Z,-1.43
2023-03-05T20:48:42.241Z,-1.41
2023-03-05T20:51:51.207Z,-1.37
2023-03-05T20:54:54.907Z,-1.37
2023-03-05T20:57:58.611Z,-1.28
2023-03-05T21:01:02.140Z,-1.37
2023-03-05T21:04:05.975Z,-1.35
2023-03-05T21:07:10.890Z,-1.20
2023-03-05T21:10:16.527Z,-1.12
2023-03-05T21:13:20.324Z,-1.22
2023-03-05T21:16:26.593Z,-1.27
2023-03-05T21:19:33.634Z,-1.36
2023-03-05T21:22:38.734Z,-1.26
2023-03-05T21:25:42.269Z,-1.38
2023-03-05T21:28:46.138Z,-1.45
2023-03-05T21:31:49.824Z,-1.31
2023-03-05T21:34:54.352Z,-1.19
2023-03-05T21:38:00.233Z,-1.24
2023-03-05T21:41:04.429Z,-1.29
2023-03-05T21:44:11.684Z,-1.34
2023-03-05T21:47:15.510Z,-1.25
2023-03-05T21:50:20.208Z,-1.25
2023-03-05T21:53:25.837Z,-1.40
2023-03-05T21:56:31.264Z,-1.25
2023-03-05T21:59:35.281Z,-1.30
2023-03-05T22:02:39.204Z,-1.41
2023-03-05T22:05:43.760Z,-1.41
2023-03-05T22:08:49.201Z,-1.19
2023-03-05T22:11:52.695Z,-1.25
2023-03-05T22:14:56.074Z,-1.32
2023-03-05T22:17:59.540Z,-1.35
2023-03-05T22:21:04.215Z,-1.28
2023-03-05T22:24:10.351Z,-1.39
2023-03-05T22:27:13.774Z,-1.40
2023-03-05T22:30:28.202Z,-1.43
2023-03-05T22:33:32.771Z,-1.33
2023-03-05T22:36:36.440Z,-1.33
2023-03-05T22:39:41.297Z,-1.35
2023-03-05T22:42:45.666Z,-1.34
2023-03-05T22:45:49.633Z,-1.36
2023-03-05T22:48:53.960Z,-1.38
2023-03-05T22:51:57.496Z,-1.43
2023-03-05T22:55:04.655Z,-1.32
2023-03-05T22:58:08.087Z,-1.46
2023-03-05T23:01:15.879Z,-1.36
2023-03-05T23:04:29.646Z,-1.45
2023-03-05T23:07:35.859Z,-1.42
2023-03-05T23:10:40.794Z,-1.49
2023-03-05T23:13:44.350Z,-1.46
2023-03-05T23:16:48.118Z,-1.36
2023-03-05T23:19:51.737Z,-1.39
2023-03-05T23:23:01.767Z,-1.45
2023-03-05T23:26:07.197Z,-1.36
2023-03-05T23:29:12.206Z,-1.33
2023-03-05T23:32:15.696Z,-1.33
2023-03-05T23:35:21.946Z,-1.31
2023-03-05T23:38:26.960Z,-1.40
2023-03-05T23:41:32.057Z,-1.31
2023-03-05T23:44:37.806Z,-1.34
2023-03-05T23:47:42.649Z,-1.33
2023-03-05T23:50:48.930Z,-1.18
2023-03-05T23:53:52.727Z,-1.41
2023-03-05T23:56:57.630Z,-1.14
